createdAt,value
2018-02-08T00:00:30.970Z,-2.07
2018-02-08T00:01:30.982Z,-2.04
2018-02-08T00:02:30.995Z,-2.08
2018-02-08T00:03:31.007Z,-2.08
2018-02-08T00:04:31.019Z,-2.08
2018-02-08T00:05:31.032Z,-2.15
2018-02-08T00:06:31.043Z,-2.15
2018-02-08T00:07:31.059Z,-2.08
2018-02-08T00:08:31.067Z,-2.16
2018-02-08T00:09:31.079Z,-2.16
2018-02-08T00:10:31.091Z,-2.13
2018-02-08T00:11:31.104Z,-2.21
2018-02-08T00:12:31.115Z,-2.25
2018-02-08T00:13:31.127Z,-2.34
2018-02-08T00:14:31.139Z,-2.21
2018-02-08T00:15:31.202Z,-2.18
2018-02-08T00:16:31.165Z,-2.19
2018-02-08T00:17:31.176Z,-2.15
2018-02-08T00:18:31.188Z,-2.19
2018-02-08T00:19:31.198Z,-2.21
2018-02-08T00:20:31.311Z,-2.32
2018-02-08T00:21:31.223Z,-2.26
2018-02-08T00:22:31.242Z,-2.23
2018-02-08T00:23:31.247Z,-2.21
2018-02-08T00:24:31.259Z,-2.23
2018-02-08T00:25:31.271Z,-2.32
2018-02-08T00:26:31.385Z,-2.34
2018-02-08T00:27:31.295Z,-2.23
2018-02-08T00:28:31.307Z,-2.32
2018-02-08T00:29:31.320Z,-2.26
2018-02-08T00:30:31.332Z,-2.38
2018-02-08T00:31:31.344Z,-2.32
2018-02-08T00:32:31.355Z,-2.35
2018-02-08T00:33:31.368Z,-2.16
2018-02-08T00:34:31.379Z,-2.28
2018-02-08T00:35:31.391Z,-2.25
2018-02-08T00:36:31.403Z,-2.41
2018-02-08T00:37:31.414Z,-2.40
2018-02-08T00:38:31.427Z,-2.44
2018-02-08T00:39:31.439Z,-2.32
2018-02-08T00:40:31.450Z,-2.40
2018-02-08T00:41:31.463Z,-2.41
2018-02-08T00:42:31.475Z,-2.34
2018-02-08T00:43:31.487Z,-2.34
2018-02-08T00:44:31.500Z,-2.45
2018-02-08T00:45:31.510Z,-2.40
2018-02-08T00:46:31.523Z,-2.47
2018-02-08T00:47:31.535Z,-2.41
2018-02-08T00:48:31.546Z,-2.44
2018-02-08T00:49:31.559Z,-2.44
2018-02-08T00:50:31.571Z,-2.41
2018-02-08T00:51:31.582Z,-2.48
2018-02-08T00:52:31.594Z,-2.40
2018-02-08T00:53:31.607Z,-2.34
2018-02-08T00:54:31.618Z,-2.44
2018-02-08T00:55:31.630Z,-2.41
2018-02-08T00:56:31.644Z,-2.52
2018-02-08T00:57:31.654Z,-2.47
2018-02-08T00:58:31.672Z,-2.44
2018-02-08T00:59:31.681Z,-2.47
2018-02-08T01:00:31.689Z,-2.41
2018-02-08T01:01:31.701Z,-2.44
2018-02-08T01:02:31.714Z,-2.48
2018-02-08T01:03:31.731Z,-2.44
2018-02-08T01:04:31.737Z,-2.40
2018-02-08T01:05:31.749Z,-2.41
2018-02-08T01:06:31.761Z,-2.45
2018-02-08T01:07:31.877Z,-2.42
2018-02-08T01:08:31.784Z,-2.41
2018-02-08T01:09:31.800Z,-2.44
2018-02-08T01:10:31.809Z,-2.52
2018-02-08T01:11:31.820Z,-2.50
2018-02-08T01:12:31.882Z,-2.42
2018-02-08T01:13:31.844Z,-2.48
2018-02-08T01:14:31.856Z,-2.42
2018-02-08T01:15:31.868Z,-2.48
2018-02-08T01:16:31.880Z,-2.47
2018-02-08T01:17:31.891Z,-2.34
2018-02-08T01:18:31.904Z,-2.40
2018-02-08T01:19:31.916Z,-2.38
2018-02-08T01:20:31.927Z,-2.53
2018-02-08T01:21:31.940Z,-2.47
2018-02-08T01:22:31.951Z,-2.53
2018-02-08T01:23:31.964Z,-2.53
2018-02-08T01:24:31.975Z,-2.66
2018-02-08T01:25:31.986Z,-2.52
2018-02-08T01:26:31.999Z,-2.56
2018-02-08T01:27:32.011Z,-2.58
2018-02-08T01:28:32.023Z,-2.69
2018-02-08T01:29:32.035Z,-2.63
2018-02-08T01:30:32.049Z,-2.66
2018-02-08T01:31:32.058Z,-2.70
2018-02-08T01:32:32.070Z,-2.63
2018-02-08T01:33:32.083Z,-2.65
2018-02-08T01:34:32.094Z,-2.65
2018-02-08T01:35:32.106Z,-2.59
2018-02-08T01:36:32.117Z,-2.70
2018-02-08T01:37:32.129Z,-2.70
2018-02-08T01:38:32.146Z,-2.71
2018-02-08T01:39:32.153Z,-2.71
2018-02-08T01:40:32.165Z,-2.70
2018-02-08T01:41:32.176Z,-2.70
2018-02-08T01:42:32.188Z,-2.65
2018-02-08T01:43:32.200Z,-2.59
2018-02-08T01:44:32.212Z,-2.69
2018-02-08T01:45:32.223Z,-2.73
2018-02-08T01:46:32.235Z,-2.66
2018-02-08T01:47:32.247Z,-2.74
2018-02-08T01:48:32.308Z,-2.66
2018-02-08T01:49:32.271Z,-2.70
2018-02-08T01:50:32.283Z,-2.70
2018-02-08T01:51:32.294Z,-2.65
2018-02-08T01:52:32.306Z,-2.74
2018-02-08T01:53:32.317Z,-2.78
2018-02-08T01:54:32.329Z,-2.81
2018-02-08T01:55:32.342Z,-2.77
2018-02-08T01:56:32.352Z,-2.71
2018-02-08T01:57:32.365Z,-2.73
2018-02-08T01:58:32.377Z,-2.77
2018-02-08T01:59:32.396Z,-2.77
2018-02-08T02:00:32.399Z,-2.78
2018-02-08T02:01:32.412Z,-2.69
2018-02-08T02:02:32.423Z,-2.76
2018-02-08T02:03:32.436Z,-2.65
2018-02-08T02:04:32.450Z,-2.70
2018-02-08T02:05:32.459Z,-2.62
2018-02-08T02:06:32.572Z,-2.71
2018-02-08T02:07:32.483Z,-2.63
2018-02-08T02:08:32.496Z,-2.77
2018-02-08T02:09:32.506Z,-2.77
2018-02-08T02:10:32.519Z,-2.63
2018-02-08T02:11:32.530Z,-2.65
2018-02-08T02:12:32.541Z,-2.58
2018-02-08T02:13:32.554Z,-2.65
2018-02-08T02:14:32.568Z,-2.53
2018-02-08T02:15:32.577Z,-2.55
2018-02-08T02:16:32.588Z,-2.58
2018-02-08T02:17:32.651Z,-2.58
2018-02-08T02:18:32.612Z,-2.69
2018-02-08T02:19:32.624Z,-2.66
2018-02-08T02:20:32.638Z,-2.74
2018-02-08T02:21:32.647Z,-2.83
2018-02-08T02:22:32.659Z,-2.83
2018-02-08T02:23:32.671Z,-2.78
2018-02-08T02:24:32.686Z,-2.70
2018-02-08T02:25:32.694Z,-2.76
2018-02-08T02:26:32.707Z,-2.74
2018-02-08T02:27:32.719Z,-2.78
2018-02-08T02:28:32.730Z,-2.70
2018-02-08T02:29:32.741Z,-2.76
2018-02-08T02:30:32.753Z,-2.70
2018-02-08T02:31:32.766Z,-2.74
2018-02-08T02:32:32.777Z,-2.84
2018-02-08T02:33:32.789Z,-2.78
2018-02-08T02:34:32.801Z,-2.83
2018-02-08T02:35:32.813Z,-2.83
2018-02-08T02:36:32.823Z,-2.88
2018-02-08T02:37:32.837Z,-2.92
2018-02-08T02:38:32.847Z,-2.78
2018-02-08T02:39:32.860Z,-2.88
2018-02-08T02:40:32.871Z,-2.74
2018-02-08T02:41:32.983Z,-2.77
2018-02-08T02:42:32.895Z,-2.74
2018-02-08T02:43:32.906Z,-2.74
2018-02-08T02:44:32.922Z,-2.84
2018-02-08T02:45:32.933Z,-2.76
2018-02-08T02:46:32.941Z,-2.81
2018-02-08T02:47:32.953Z,-2.86
2018-02-08T02:48:32.964Z,-2.73
2018-02-08T02:49:32.977Z,-2.80
2018-02-08T02:50:32.988Z,-2.78
2018-02-08T02:51:33.000Z,-2.71
2018-02-08T02:52:33.012Z,-2.78
2018-02-08T02:53:33.073Z,-2.83
2018-02-08T02:54:33.035Z,-2.89
2018-02-08T02:55:33.047Z,-2.84
2018-02-08T02:56:33.058Z,-2.88
2018-02-08T02:57:33.070Z,-2.89
2018-02-08T02:58:33.082Z,-2.83
2018-02-08T02:59:33.144Z,-2.78
2018-02-08T03:00:33.104Z,-2.73
2018-02-08T03:01:33.116Z,-2.88
2018-02-08T03:02:33.129Z,-2.83
2018-02-08T03:03:33.140Z,-2.92
2018-02-08T03:04:33.202Z,-2.83
2018-02-08T03:05:33.163Z,-2.97
2018-02-08T03:06:33.176Z,-2.95
2018-02-08T03:07:33.190Z,-3.02
2018-02-08T03:08:33.198Z,-2.99
2018-02-08T03:09:33.210Z,-3.06
2018-02-08T03:10:33.222Z,-2.99
2018-02-08T03:11:33.235Z,-2.92
2018-02-08T03:12:33.246Z,-2.92
2018-02-08T03:13:33.257Z,-2.97
2018-02-08T03:14:33.270Z,-2.92
2018-02-08T03:15:33.334Z,-2.84
2018-02-08T03:16:33.293Z,-2.89
2018-02-08T03:17:33.305Z,-2.86
2018-02-08T03:18:33.316Z,-2.89
2018-02-08T03:19:33.329Z,-2.77
2018-02-08T03:20:33.338Z,-2.73
2018-02-08T03:21:33.352Z,-2.83
2018-02-08T03:22:33.365Z,-2.91
2018-02-08T03:23:33.374Z,-2.81
2018-02-08T03:24:33.387Z,-2.84
2018-02-08T03:25:33.400Z,-2.77
2018-02-08T03:26:33.410Z,-2.80
2018-02-08T03:27:33.423Z,-2.78
2018-02-08T03:28:33.433Z,-2.88
2018-02-08T03:29:33.445Z,-2.80
2018-02-08T03:30:33.458Z,-2.94
2018-02-08T03:31:33.470Z,-2.89
2018-02-08T03:32:33.481Z,-2.86
2018-02-08T03:33:33.492Z,-2.94
2018-02-08T03:34:33.504Z,-2.95
2018-02-08T03:35:33.515Z,-2.80
2018-02-08T03:36:33.526Z,-2.94
2018-02-08T03:37:33.538Z,-2.98
2018-02-08T03:38:33.551Z,-2.95
2018-02-08T03:39:33.562Z,-2.91
2018-02-08T03:40:33.573Z,-2.99
2018-02-08T03:41:33.585Z,-2.94
2018-02-08T03:42:33.597Z,-2.98
2018-02-08T03:43:33.608Z,-3.09
2018-02-08T03:44:33.619Z,-3.04
2018-02-08T03:45:33.631Z,-2.95
2018-02-08T03:46:33.642Z,-3.04
2018-02-08T03:47:33.655Z,-2.98
2018-02-08T03:48:33.666Z,-3.06
2018-02-08T03:49:33.677Z,-3.15
2018-02-08T03:50:33.689Z,-2.98
2018-02-08T03:51:33.700Z,-2.99
2018-02-08T03:52:33.712Z,-2.99
2018-02-08T03:53:33.724Z,-3.02
2018-02-08T03:54:33.735Z,-2.99
2018-02-08T03:55:33.747Z,-2.99
2018-02-08T03:56:33.858Z,-2.88
2018-02-08T03:57:33.772Z,-2.94
2018-02-08T03:58:33.781Z,-2.92
2018-02-08T03:59:33.792Z,-3.01
2018-02-08T04:00:33.802Z,-3.04
2018-02-08T04:01:33.815Z,-2.99
2018-02-08T04:02:33.828Z,-3.15
2018-02-08T04:03:33.839Z,-3.19
2018-02-08T04:04:33.849Z,-3.12
2018-02-08T04:05:33.861Z,-3.17
2018-02-08T04:06:33.873Z,-3.19
2018-02-08T04:07:33.885Z,-3.13
2018-02-08T04:08:33.910Z,-3.23
2018-02-08T04:09:33.907Z,-3.15
2018-02-08T04:10:33.919Z,-3.20
2018-02-08T04:11:33.933Z,-3.25
2018-02-08T04:12:33.941Z,-3.19
2018-02-08T04:13:33.953Z,-3.22
2018-02-08T04:14:33.965Z,-3.31
2018-02-08T04:15:33.977Z,-3.20
2018-02-08T04:16:33.987Z,-3.28
2018-02-08T04:17:33.999Z,-3.35
2018-02-08T04:18:34.011Z,-3.38
2018-02-08T04:19:34.022Z,-3.38
2018-02-08T04:20:34.033Z,-3.44
2018-02-08T04:21:34.044Z,-3.54
2018-02-08T04:22:34.056Z,-3.52
2018-02-08T04:23:34.071Z,-3.49
2018-02-08T04:24:34.078Z,-3.48
2018-02-08T04:25:34.090Z,-3.54
2018-02-08T04:26:34.102Z,-3.49
2018-02-08T04:27:34.117Z,-3.46
2018-02-08T04:28:34.124Z,-3.48
2018-02-08T04:29:34.136Z,-3.45
2018-02-08T04:30:34.148Z,-3.48
2018-02-08T04:31:34.159Z,-3.58
2018-02-08T04:32:34.170Z,-3.49
2018-02-08T04:33:34.182Z,-3.45
2018-02-08T04:34:34.196Z,-3.55
2018-02-08T04:35:34.205Z,-3.44
2018-02-08T04:36:34.216Z,-3.33
2018-02-08T04:37:34.228Z,-3.31
2018-02-08T04:38:34.239Z,-3.40
2018-02-08T04:39:34.251Z,-3.23
2018-02-08T04:40:34.262Z,-3.37
2018-02-08T04:41:34.274Z,-3.27
2018-02-08T04:42:34.285Z,-3.40
2018-02-08T04:43:34.298Z,-3.40
2018-02-08T04:44:34.308Z,-3.54
2018-02-08T04:45:34.319Z,-3.52
2018-02-08T04:46:34.331Z,-3.52
2018-02-08T04:47:34.342Z,-3.55
2018-02-08T04:48:34.353Z,-3.48
2018-02-08T04:49:34.365Z,-3.64
2018-02-08T04:50:34.376Z,-3.58
2018-02-08T04:51:34.388Z,-3.52
2018-02-08T04:52:34.399Z,-3.61
2018-02-08T04:53:34.411Z,-3.58
2018-02-08T04:54:34.423Z,-3.49
2018-02-08T04:55:34.435Z,-3.51
2018-02-08T04:56:34.445Z,-3.46
2018-02-08T04:57:34.457Z,-3.45
2018-02-08T04:58:34.469Z,-3.40
2018-02-08T04:59:34.480Z,-3.41
2018-02-08T05:00:34.491Z,-3.41
2018-02-08T05:01:34.503Z,-3.38
2018-02-08T05:02:34.515Z,-3.46
2018-02-08T05:03:34.526Z,-3.61
2018-02-08T05:04:34.537Z,-3.56
2018-02-08T05:05:34.549Z,-3.51
2018-02-08T05:06:34.560Z,-3.48
2018-02-08T05:07:34.572Z,-3.49
2018-02-08T05:08:34.583Z,-3.52
2018-02-08T05:09:34.595Z,-3.41
2018-02-08T05:10:34.606Z,-3.31
2018-02-08T05:11:34.621Z,-3.28
2018-02-08T05:12:34.629Z,-3.34
2018-02-08T05:13:34.640Z,-3.28
2018-02-08T05:14:34.653Z,-3.35
2018-02-08T05:15:34.664Z,-3.30
2018-02-08T05:16:34.675Z,-3.30
2018-02-08T05:17:34.687Z,-3.40
2018-02-08T05:18:34.698Z,-3.49
2018-02-08T05:19:34.710Z,-3.55
2018-02-08T05:20:34.721Z,-3.55
2018-02-08T05:21:34.732Z,-3.56
2018-02-08T05:22:34.751Z,-3.56
2018-02-08T05:23:34.756Z,-3.61
2018-02-08T05:24:34.767Z,-3.61
2018-02-08T05:25:34.778Z,-3.58
2018-02-08T05:26:34.790Z,-3.58
2018-02-08T05:27:34.801Z,-3.63
2018-02-08T05:28:34.812Z,-3.61
2018-02-08T05:29:34.824Z,-3.51
2018-02-08T05:30:34.835Z,-3.64
2018-02-08T05:31:34.848Z,-3.58
2018-02-08T05:32:34.959Z,-3.55
2018-02-08T05:33:34.871Z,-3.67
2018-02-08T05:34:34.893Z,-3.59
2018-02-08T05:35:34.893Z,-3.55
2018-02-08T05:36:34.903Z,-3.56
2018-02-08T05:37:35.115Z,-3.59
2018-02-08T05:38:34.927Z,-3.49
2018-02-08T05:39:34.939Z,-3.48
2018-02-08T05:40:34.955Z,-3.54
2018-02-08T05:41:34.961Z,-3.45
2018-02-08T05:42:34.972Z,-3.59
2018-02-08T05:43:35.033Z,-3.54
2018-02-08T05:44:34.995Z,-3.58
2018-02-08T05:45:35.007Z,-3.49
2018-02-08T05:46:35.018Z,-3.54
2018-02-08T05:47:35.030Z,-3.49
2018-02-08T05:48:35.090Z,-3.52
2018-02-08T05:49:35.052Z,-3.46
2018-02-08T05:50:35.064Z,-3.44
2018-02-08T05:51:35.076Z,-3.44
2018-02-08T05:52:35.093Z,-3.46
2018-02-08T05:53:35.148Z,-3.45
2018-02-08T05:54:35.111Z,-3.49
2018-02-08T05:55:35.121Z,-3.54
2018-02-08T05:56:35.131Z,-3.44
2018-02-08T05:57:35.148Z,-3.45
2018-02-08T05:58:35.155Z,-3.49
2018-02-08T05:59:35.168Z,-3.49
2018-02-08T06:00:35.178Z,-3.46
2018-02-08T06:01:35.188Z,-3.48
2018-02-08T06:02:35.200Z,-3.49
2018-02-08T06:03:35.218Z,-3.48
2018-02-08T06:04:35.224Z,-3.41
2018-02-08T06:05:35.240Z,-3.41
2018-02-08T06:06:35.247Z,-3.37
2018-02-08T06:07:35.259Z,-3.35
2018-02-08T06:08:35.269Z,-3.37
2018-02-08T06:09:35.281Z,-3.45
2018-02-08T06:10:35.293Z,-3.37
2018-02-08T06:11:35.305Z,-3.35
2018-02-08T06:12:35.315Z,-3.27
2018-02-08T06:13:35.329Z,-3.41
2018-02-08T06:14:35.338Z,-3.33
2018-02-08T06:15:35.350Z,-3.34
2018-02-08T06:16:35.361Z,-3.28
2018-02-08T06:17:35.374Z,-3.17
2018-02-08T06:18:35.385Z,-3.22
2018-02-08T06:19:35.397Z,-3.17
2018-02-08T06:20:35.407Z,-3.19
2018-02-08T06:21:35.419Z,-3.13
2018-02-08T06:22:35.430Z,-3.15
2018-02-08T06:23:35.442Z,-3.13
2018-02-08T06:24:35.453Z,-3.12
2018-02-08T06:25:35.465Z,-3.15
2018-02-08T06:26:35.476Z,-3.16
2018-02-08T06:27:35.488Z,-3.16
2018-02-08T06:28:35.499Z,-3.10
2018-02-08T06:29:35.510Z,-3.09
2018-02-08T06:30:35.532Z,-3.06
2018-02-08T06:31:35.534Z,-3.04
2018-02-08T06:32:35.544Z,-3.01
2018-02-08T06:33:35.557Z,-3.10
2018-02-08T06:34:35.568Z,-3.09
2018-02-08T06:35:35.580Z,-3.04
2018-02-08T06:36:35.593Z,-3.02
2018-02-08T06:37:35.603Z,-2.97
2018-02-08T06:38:35.614Z,-3.04
2018-02-08T06:39:35.626Z,-2.92
2018-02-08T06:40:35.636Z,-2.91
2018-02-08T06:41:35.649Z,-2.92
2018-02-08T06:42:35.660Z,-2.94
2018-02-08T06:43:35.672Z,-2.97
2018-02-08T06:44:35.683Z,-2.83
2018-02-08T06:45:35.698Z,-2.98
2018-02-08T06:46:35.707Z,-2.94
2018-02-08T06:47:35.719Z,-2.97
2018-02-08T06:48:35.729Z,-2.91
2018-02-08T06:49:35.740Z,-2.95
2018-02-08T06:50:35.753Z,-2.95
2018-02-08T06:51:35.765Z,-2.89
2018-02-08T06:52:35.778Z,-2.95
2018-02-08T06:53:35.787Z,-2.98
2018-02-08T06:54:35.800Z,-2.97
2018-02-08T06:55:35.811Z,-2.89
2018-02-08T06:56:35.824Z,-2.84
2018-02-08T06:57:35.834Z,-2.95
2018-02-08T06:58:35.850Z,-2.88
2018-02-08T06:59:35.859Z,-3.09
2018-02-08T07:00:35.868Z,-3.07
2018-02-08T07:01:35.880Z,-3.10
2018-02-08T07:02:35.892Z,-3.20
2018-02-08T07:03:36.020Z,-3.34
2018-02-08T07:04:35.915Z,-3.33
2018-02-08T07:05:35.927Z,-3.23
2018-02-08T07:06:35.939Z,-3.41
2018-02-08T07:07:35.955Z,-3.38
2018-02-08T07:08:35.965Z,-3.28
2018-02-08T07:09:35.973Z,-3.31
2018-02-08T07:10:35.985Z,-3.28
2018-02-08T07:11:35.997Z,-3.34
2018-02-08T07:12:36.008Z,-3.46
2018-02-08T07:13:36.024Z,-3.49
2018-02-08T07:14:36.032Z,-3.49
2018-02-08T07:15:36.044Z,-3.51
2018-02-08T07:16:36.054Z,-3.56
2018-02-08T07:17:36.066Z,-3.55
2018-02-08T07:18:36.077Z,-3.56
2018-02-08T07:19:36.089Z,-3.51
2018-02-08T07:20:36.100Z,-3.56
2018-02-08T07:21:36.112Z,-3.61
2018-02-08T07:22:36.124Z,-3.58
2018-02-08T07:23:36.136Z,-3.59
2018-02-08T07:24:36.145Z,-3.55
2018-02-08T07:25:36.166Z,-3.58
2018-02-08T07:26:36.169Z,-3.58
2018-02-08T07:27:36.181Z,-3.56
2018-02-08T07:28:36.191Z,-3.51
2018-02-08T07:29:36.204Z,-3.59
2018-02-08T07:30:36.215Z,-3.59
2018-02-08T07:31:36.227Z,-3.46
2018-02-08T07:32:36.237Z,-3.52
2018-02-08T07:33:36.249Z,-3.45
2018-02-08T07:34:36.267Z,-3.48
2018-02-08T07:35:36.309Z,-3.48
2018-02-08T07:36:36.283Z,-3.51
2018-02-08T07:37:36.295Z,-3.41
2018-02-08T07:38:36.307Z,-3.40
2018-02-08T07:39:36.319Z,-3.48
2018-02-08T07:40:36.330Z,-3.40
2018-02-08T07:41:36.340Z,-3.44
2018-02-08T07:42:36.352Z,-3.44
2018-02-08T07:43:36.364Z,-3.20
2018-02-08T07:44:36.375Z,-3.20
2018-02-08T07:45:36.388Z,-3.33
2018-02-08T07:46:36.398Z,-3.12
2018-02-08T07:47:36.411Z,-3.17
2018-02-08T07:48:36.421Z,-3.01
2018-02-08T07:49:36.433Z,-2.99
2018-02-08T07:50:36.447Z,-3.04
2018-02-08T07:51:36.458Z,-2.94
2018-02-08T07:52:36.467Z,-3.07
2018-02-08T07:53:36.479Z,-3.06
2018-02-08T07:54:36.491Z,-2.98
2018-02-08T07:55:36.503Z,-3.07
2018-02-08T07:56:36.514Z,-2.91
2018-02-08T07:57:36.527Z,-2.86
2018-02-08T07:58:36.539Z,-2.92
2018-02-08T07:59:36.550Z,-2.94
2018-02-08T08:00:36.560Z,-2.89
2018-02-08T08:01:36.573Z,-2.92
2018-02-08T08:02:36.584Z,-2.81
2018-02-08T08:03:36.596Z,-2.76
2018-02-08T08:04:36.607Z,-2.81
2018-02-08T08:05:36.620Z,-2.81
2018-02-08T08:06:36.631Z,-2.78
2018-02-08T08:07:36.644Z,-2.78
2018-02-08T08:08:36.655Z,-2.76
2018-02-08T08:09:36.667Z,-2.65
2018-02-08T08:10:36.679Z,-2.65
2018-02-08T08:11:36.691Z,-2.60
2018-02-08T08:12:36.701Z,-2.52
2018-02-08T08:13:36.764Z,-2.55
2018-02-08T08:14:36.726Z,-2.44
2018-02-08T08:15:36.738Z,-2.48
2018-02-08T08:16:36.750Z,-2.37
2018-02-08T08:17:36.762Z,-2.40
2018-02-08T08:18:36.774Z,-2.40
2018-02-08T08:19:36.786Z,-2.37
2018-02-08T08:20:36.798Z,-2.38
2018-02-08T08:21:36.811Z,-2.34
2018-02-08T08:22:36.822Z,-2.32
2018-02-08T08:23:36.835Z,-2.22
2018-02-08T08:24:36.860Z,-2.21
2018-02-08T08:25:36.858Z,-2.38
2018-02-08T08:26:36.971Z,-2.32
2018-02-08T08:27:36.884Z,-2.22
2018-02-08T08:28:36.895Z,-2.15
2018-02-08T08:29:36.908Z,-2.13
2018-02-08T08:30:36.920Z,-1.98
2018-02-08T08:31:36.935Z,-1.89
2018-02-08T08:32:36.944Z,-1.84
2018-02-08T08:33:36.956Z,-1.74
2018-02-08T08:34:36.970Z,-1.83
2018-02-08T08:35:36.983Z,-1.82
2018-02-08T08:36:36.993Z,-1.83
2018-02-08T08:37:37.006Z,-1.86
2018-02-08T08:38:37.017Z,-1.82
2018-02-08T08:39:37.032Z,-1.86
2018-02-08T08:40:37.043Z,-1.74
2018-02-08T08:41:37.056Z,-1.71
2018-02-08T08:42:37.069Z,-1.71
2018-02-08T08:43:37.081Z,-1.65
2018-02-08T08:44:37.093Z,-1.59
2018-02-08T08:45:37.107Z,-1.54
2018-02-08T08:46:37.119Z,-1.64
2018-02-08T08:47:37.131Z,-1.47
2018-02-08T08:48:37.144Z,-1.50
2018-02-08T08:49:37.156Z,-1.56
2018-02-08T08:50:37.169Z,-1.47
2018-02-08T08:51:37.181Z,-1.54
2018-02-08T08:52:37.194Z,-1.65
2018-02-08T08:53:37.207Z,-1.59
2018-02-08T08:54:37.219Z,-1.64
2018-02-08T08:55:37.235Z,-1.50
2018-02-08T08:56:37.244Z,-1.58
2018-02-08T08:57:37.257Z,-1.64
2018-02-08T08:58:37.274Z,-1.68
2018-02-08T08:59:37.282Z,-1.72
2018-02-08T09:00:37.395Z,-1.74
2018-02-08T09:01:37.307Z,-1.69
2018-02-08T09:02:37.322Z,-1.72
2018-02-08T09:03:37.334Z,-1.74
2018-02-08T09:04:37.345Z,-1.79
2018-02-08T09:05:37.359Z,-1.69
2018-02-08T09:06:37.370Z,-1.68
2018-02-08T09:07:37.384Z,-1.62
2018-02-08T09:08:37.396Z,-1.62
2018-02-08T09:09:37.408Z,-1.62
2018-02-08T09:10:37.421Z,-1.62
2018-02-08T09:11:37.434Z,-1.59
2018-02-08T09:12:37.445Z,-1.59
2018-02-08T09:13:37.459Z,-1.64
2018-02-08T09:14:37.473Z,-1.69
2018-02-08T09:15:37.484Z,-1.64
2018-02-08T09:16:37.498Z,-1.65
2018-02-08T09:17:37.523Z,-1.68
2018-02-08T09:18:37.524Z,-1.54
2018-02-08T09:19:37.539Z,-1.64
2018-02-08T09:20:37.557Z,-1.50
2018-02-08T09:21:37.562Z,-1.50
2018-02-08T09:22:37.576Z,-1.53
2018-02-08T09:23:37.587Z,-1.51
2018-02-08T09:24:37.600Z,-1.58
2018-02-08T09:25:37.612Z,-1.46
2018-02-08T09:26:37.628Z,-1.40
2018-02-08T09:27:37.638Z,-1.38
2018-02-08T09:28:37.657Z,-1.38
2018-02-08T09:29:37.674Z,-1.38
2018-02-08T09:30:37.678Z,-1.41
2018-02-08T09:31:37.690Z,-1.47
2018-02-08T09:32:37.722Z,-1.47
2018-02-08T09:33:37.717Z,-1.43
2018-02-08T09:34:37.731Z,-1.43
2018-02-08T09:35:37.739Z,-1.30
2018-02-08T09:36:37.750Z,-1.40
2018-02-08T09:37:37.763Z,-1.40
2018-02-08T09:38:37.776Z,-1.30
2018-02-08T09:39:37.789Z,-1.23
2018-02-08T09:40:37.801Z,-1.22
2018-02-08T09:41:37.814Z,-1.19
2018-02-08T09:42:37.827Z,-1.15
2018-02-08T09:43:37.840Z,-1.15
2018-02-08T09:44:37.855Z,-1.20
2018-02-08T09:45:37.865Z,-1.33
2018-02-08T09:46:37.878Z,-1.29
2018-02-08T09:47:37.891Z,-1.27
2018-02-08T09:48:37.903Z,-1.22
2018-02-08T09:49:37.917Z,-1.15
2018-02-08T09:50:37.931Z,-1.09
2018-02-08T09:51:38.046Z,-0.93
2018-02-08T09:52:37.954Z,-0.90
2018-02-08T09:53:37.968Z,-0.94
2018-02-08T09:54:37.980Z,-0.99
2018-02-08T09:55:37.994Z,-0.93
2018-02-08T09:56:38.007Z,-0.93
2018-02-08T09:57:38.019Z,-0.78
2018-02-08T09:58:38.033Z,-0.77
2018-02-08T09:59:38.046Z,-0.74
2018-02-08T10:00:38.058Z,-0.67
2018-02-08T10:01:38.071Z,-0.61
2018-02-08T10:02:38.102Z,-0.67
2018-02-08T10:03:38.099Z,-0.72
2018-02-08T10:04:38.114Z,-0.75
2018-02-08T10:05:38.127Z,-0.67
2018-02-08T10:06:38.140Z,-0.64
2018-02-08T10:07:38.155Z,-0.64
2018-02-08T10:08:38.165Z,-0.53
2018-02-08T10:09:38.195Z,-0.50
2018-02-08T10:10:38.214Z,-0.50
2018-02-08T10:11:38.204Z,-0.39
2018-02-08T10:12:38.220Z,-0.53
2018-02-08T10:13:38.228Z,-0.54
2018-02-08T10:14:38.274Z,-0.52
2018-02-08T10:15:38.260Z,-0.49
2018-02-08T10:16:38.268Z,-0.56
2018-02-08T10:17:38.281Z,-0.41
2018-02-08T10:18:38.296Z,-0.35
2018-02-08T10:19:38.311Z,-0.31
2018-02-08T10:20:38.322Z,-0.28
2018-02-08T10:21:38.334Z,-0.31
2018-02-08T10:22:38.448Z,-0.28
2018-02-08T10:23:38.361Z,-0.13
2018-02-08T10:24:38.374Z,-0.08
2018-02-08T10:25:38.387Z,-0.20
2018-02-08T10:26:38.402Z,-0.08
2018-02-08T10:27:38.415Z,-0.06
2018-02-08T10:28:38.427Z,0.07
2018-02-08T10:29:38.441Z,-0.02
2018-02-08T10:30:38.456Z,0.05
2018-02-08T10:31:38.469Z,0.05
2018-02-08T10:32:38.482Z,0.16
2018-02-08T10:33:38.496Z,0.07
2018-02-08T10:34:38.510Z,0.10
2018-02-08T10:35:38.523Z,0.12
2018-02-08T10:36:38.535Z,0.16
2018-02-08T10:37:38.650Z,0.12
2018-02-08T10:38:38.564Z,0.16
2018-02-08T10:39:38.577Z,0.23
2018-02-08T10:40:38.590Z,0.36
2018-02-08T10:41:38.605Z,0.31
2018-02-08T10:42:38.618Z,0.36
2018-02-08T10:43:38.632Z,0.36
2018-02-08T10:44:38.646Z,0.32
2018-02-08T10:45:38.658Z,0.40
2018-02-08T10:46:38.673Z,0.39
2018-02-08T10:47:38.687Z,0.39
2018-02-08T10:48:38.701Z,0.40
2018-02-08T10:49:38.754Z,0.34
2018-02-08T10:50:38.792Z,0.41
2018-02-08T10:51:38.752Z,0.49
2018-02-08T10:52:38.755Z,0.55
2018-02-08T10:53:38.799Z,0.56
2018-02-08T10:54:39.051Z,0.55
2018-02-08T10:55:38.843Z,0.44
2018-02-08T10:56:38.811Z,0.36
2018-02-08T10:57:38.935Z,0.36
2018-02-08T10:58:38.878Z,0.31
2018-02-08T10:59:38.860Z,0.15
2018-02-08T11:00:38.868Z,0.16
2018-02-08T11:01:38.947Z,0.22
2018-02-08T11:02:38.897Z,0.34
2018-02-08T11:03:38.910Z,0.32
2018-02-08T11:04:38.929Z,0.40
2018-02-08T11:05:39.161Z,0.44
2018-02-08T11:06:38.947Z,0.55
2018-02-08T11:07:38.964Z,0.63
2018-02-08T11:08:38.975Z,0.60
2018-02-08T11:09:38.989Z,0.73
2018-02-08T11:10:39.003Z,0.74
2018-02-08T11:11:39.018Z,0.88
2018-02-08T11:12:39.031Z,0.94
2018-02-08T11:13:39.045Z,0.84
2018-02-08T11:14:39.059Z,0.86
2018-02-08T11:15:39.073Z,0.78
2018-02-08T11:16:39.086Z,0.78
2018-02-08T11:17:39.100Z,0.77
2018-02-08T11:18:39.118Z,0.81
2018-02-08T11:19:39.129Z,0.74
2018-02-08T11:20:39.142Z,0.81
2018-02-08T11:21:39.156Z,0.84
2018-02-08T11:22:39.171Z,0.87
2018-02-08T11:23:39.184Z,0.94
2018-02-08T11:24:39.198Z,0.99
2018-02-08T11:25:39.211Z,0.94
2018-02-08T11:26:39.226Z,0.88
2018-02-08T11:27:39.240Z,0.87
2018-02-08T11:28:39.254Z,1.01
2018-02-08T11:29:39.268Z,1.06
2018-02-08T11:30:39.283Z,1.12
2018-02-08T11:31:39.296Z,1.08
2018-02-08T11:32:39.310Z,0.94
2018-02-08T11:33:39.324Z,0.80
2018-02-08T11:34:39.341Z,0.78
2018-02-08T11:35:39.353Z,0.83
2018-02-08T11:36:39.366Z,0.98
2018-02-08T11:37:39.382Z,1.02
2018-02-08T11:38:39.397Z,1.05
2018-02-08T11:39:39.410Z,1.14
2018-02-08T11:40:39.422Z,1.30
2018-02-08T11:41:39.437Z,1.35
2018-02-08T11:42:39.498Z,1.30
2018-02-08T11:43:39.466Z,1.49
2018-02-08T11:44:39.478Z,1.42
2018-02-08T11:45:39.495Z,1.42
2018-02-08T11:46:39.507Z,1.52
2018-02-08T11:47:39.531Z,1.55
2018-02-08T11:48:39.536Z,1.53
2018-02-08T11:49:39.550Z,1.55
2018-02-08T11:50:39.564Z,1.49
2018-02-08T11:51:39.579Z,1.44
2018-02-08T11:52:39.592Z,1.41
2018-02-08T11:53:39.608Z,1.45
2018-02-08T11:54:39.621Z,1.49
2018-02-08T11:55:39.637Z,1.53
2018-02-08T11:56:39.649Z,1.59
2018-02-08T11:57:39.665Z,1.60
2018-02-08T11:58:39.681Z,1.68
2018-02-08T11:59:39.693Z,1.66
2018-02-08T12:00:39.708Z,1.62
2018-02-08T12:01:39.723Z,1.53
2018-02-08T12:02:39.736Z,1.41
2018-02-08T12:03:39.751Z,1.41
2018-02-08T12:04:39.764Z,1.24
2018-02-08T12:05:39.779Z,1.30
2018-02-08T12:06:39.794Z,1.44
2018-02-08T12:07:39.809Z,1.40
2018-02-08T12:08:39.822Z,1.50
2018-02-08T12:09:39.836Z,1.50
2018-02-08T12:10:39.851Z,1.59
2018-02-08T12:11:39.866Z,1.42
2018-02-08T12:12:39.880Z,1.56
2018-02-08T12:13:39.895Z,1.53
2018-02-08T12:14:39.909Z,1.48
2018-02-08T12:15:39.924Z,1.58
2018-02-08T12:16:39.938Z,1.68
2018-02-08T12:17:39.952Z,1.62
2018-02-08T12:18:39.967Z,1.77
2018-02-08T12:19:39.982Z,1.84
2018-02-08T12:20:39.995Z,1.85
2018-02-08T12:21:40.010Z,1.95
2018-02-08T12:22:40.028Z,1.97
2018-02-08T12:23:40.042Z,1.81
2018-02-08T12:24:40.054Z,1.91
2018-02-08T12:25:40.068Z,1.85
2018-02-08T12:26:40.183Z,1.88
2018-02-08T12:27:40.098Z,1.88
2018-02-08T12:28:40.112Z,1.94
2018-02-08T12:29:40.126Z,1.97
2018-02-08T12:30:40.143Z,1.99
2018-02-08T12:31:40.159Z,1.94
2018-02-08T12:32:40.220Z,1.95
2018-02-08T12:33:40.290Z,1.88
2018-02-08T12:34:40.202Z,1.84
2018-02-08T12:35:40.217Z,1.95
2018-02-08T12:36:40.483Z,1.91
2018-02-08T12:37:40.269Z,1.91
2018-02-08T12:38:40.262Z,1.78
2018-02-08T12:39:40.287Z,1.91
2018-02-08T12:40:40.296Z,1.85
2018-02-08T12:41:40.307Z,1.87
2018-02-08T12:42:40.416Z,1.87
2018-02-08T12:43:40.486Z,1.87
2018-02-08T12:44:40.381Z,1.80
2018-02-08T12:45:40.386Z,1.88
2018-02-08T12:46:40.379Z,1.88
2018-02-08T12:47:40.393Z,1.81
2018-02-08T12:48:40.426Z,1.91
2018-02-08T12:49:40.421Z,1.87
2018-02-08T12:50:40.436Z,1.71
2018-02-08T12:51:40.464Z,1.81
2018-02-08T12:52:40.466Z,1.84
2018-02-08T12:53:40.482Z,1.87
2018-02-08T12:54:40.501Z,1.81
2018-02-08T12:55:40.512Z,1.74
2018-02-08T12:56:40.526Z,1.76
2018-02-08T12:57:40.587Z,1.81